createdAt,value
2022-09-30T00:00:33.266Z,9.70
2022-09-30T00:03:00.084Z,9.70
2022-09-30T00:05:27.024Z,9.70
2022-09-30T00:07:53.779Z,9.70
2022-09-30T00:10:20.603Z,9.70
2022-09-30T00:12:47.874Z,9.80
2022-09-30T00:15:14.650Z,9.70
2022-09-30T00:17:41.410Z,9.70
2022-09-30T00:20:08.492Z,9.70
2022-09-30T00:22:35.444Z,9.70
2022-09-30T00:25:02.591Z,9.70
2022-09-30T00:27:29.334Z,9.70
2022-09-30T00:29:56.172Z,9.60
2022-09-30T00:32:22.968Z,9.60
2022-09-30T00:34:49.676Z,9.60
2022-09-30T00:37:16.850Z,9.60
2022-09-30T00:39:43.661Z,9.60
2022-09-30T00:42:14.169Z,9.60
2022-09-30T00:44:45.616Z,9.60
2022-09-30T00:47:30.567Z,9.50
2022-09-30T00:49:59.621Z,9.50
2022-09-30T00:52:26.615Z,9.50
2022-09-30T00:54:54.870Z,9.50
2022-09-30T00:57:21.627Z,9.50
2022-09-30T00:59:51.611Z,9.40
2022-09-30T01:02:18.422Z,9.40
2022-09-30T01:04:46.025Z,9.30
2022-09-30T01:07:13.482Z,9.30
2022-09-30T01:09:41.072Z,9.20
2022-09-30T01:12:10.396Z,9.20
2022-09-30T01:14:37.592Z,9.20
2022-09-30T01:17:23.123Z,9.20
2022-09-30T01:20:08.459Z,9.20
2022-09-30T01:22:44.113Z,9.20
2022-09-30T01:25:13.666Z,9.20
2022-09-30T01:27:43.193Z,9.10
2022-09-30T01:30:15.810Z,9.10
2022-09-30T01:33:01.269Z,9.10
2022-09-30T01:35:37.240Z,9.00
2022-09-30T01:38:10.041Z,8.90
2022-09-30T01:40:49.141Z,8.70
2022-09-30T01:43:15.882Z,8.50
2022-09-30T01:45:46.533Z,8.30
2022-09-30T01:48:13.439Z,8.10
2022-09-30T01:50:59.369Z,8.00
2022-09-30T01:53:39.400Z,7.90
2022-09-30T01:56:12.175Z,7.80
2022-09-30T01:58:42.049Z,7.80
2022-09-30T02:01:11.922Z,7.70
2022-09-30T02:03:49.388Z,7.60
2022-09-30T02:06:20.574Z,7.50
2022-09-30T02:08:53.625Z,7.40
2022-09-30T02:11:25.045Z,7.30
2022-09-30T02:13:55.907Z,7.30
2022-09-30T02:16:29.229Z,7.30
2022-09-30T02:19:00.934Z,7.20
2022-09-30T02:21:30.428Z,7.20
2022-09-30T02:24:02.121Z,7.10
2022-09-30T02:26:30.390Z,7.10
2022-09-30T02:28:59.513Z,7.00
2022-09-30T02:31:27.144Z,7.00
2022-09-30T02:33:56.750Z,7.00
2022-09-30T02:36:29.149Z,6.90
2022-09-30T02:39:00.611Z,6.90
2022-09-30T02:41:30.075Z,6.80
2022-09-30T02:43:57.380Z,6.80
2022-09-30T02:46:24.231Z,6.70
2022-09-30T02:48:58.127Z,6.70
2022-09-30T02:51:37.195Z,6.60
2022-09-30T02:54:14.812Z,6.60
2022-09-30T02:56:41.520Z,6.50
2022-09-30T02:59:08.297Z,6.40
2022-09-30T03:01:35.203Z,6.40
2022-09-30T03:04:07.635Z,6.40
2022-09-30T03:06:35.101Z,6.30
2022-09-30T03:09:01.912Z,6.20
2022-09-30T03:11:29.141Z,6.20
2022-09-30T03:13:58.990Z,6.20
2022-09-30T03:16:34.449Z,6.20
2022-09-30T03:19:07.318Z,6.20
2022-09-30T03:21:47.142Z,6.10
2022-09-30T03:24:30.475Z,6.10
2022-09-30T03:26:57.169Z,6.10
2022-09-30T03:29:33.787Z,6.10
2022-09-30T03:32:12.592Z,6.00
2022-09-30T03:34:51.345Z,6.00
2022-09-30T03:37:34.714Z,6.00
2022-09-30T03:40:01.470Z,5.90
2022-09-30T03:42:41.110Z,5.90
2022-09-30T03:45:08.470Z,5.90
2022-09-30T03:47:37.933Z,5.80
2022-09-30T03:50:07.576Z,5.80
2022-09-30T03:52:34.539Z,5.70
2022-09-30T03:55:02.773Z,5.70
2022-09-30T03:57:30.247Z,5.70
2022-09-30T03:59:57.735Z,5.70
2022-09-30T04:02:24.802Z,5.60
2022-09-30T04:04:51.572Z,5.50
2022-09-30T04:07:19.487Z,5.50
2022-09-30T04:09:46.342Z,5.50
2022-09-30T04:12:13.488Z,5.40
2022-09-30T04:14:40.235Z,5.40
2022-09-30T04:17:07.125Z,5.40
2022-09-30T04:19:38.247Z,5.30
2022-09-30T04:22:04.970Z,5.30
2022-09-30T04:24:31.698Z,5.30
2022-09-30T04:26:58.624Z,5.20
2022-09-30T04:29:25.355Z,5.20
2022-09-30T04:31:52.119Z,5.20
2022-09-30T04:34:19.006Z,5.10
2022-09-30T04:36:45.841Z,5.10
2022-09-30T04:39:12.624Z,5.00
2022-09-30T04:41:40.858Z,5.00
2022-09-30T04:44:07.608Z,5.00
2022-09-30T04:46:36.732Z,5.00
2022-09-30T04:49:09.306Z,4.90
2022-09-30T04:51:36.805Z,4.90
2022-09-30T04:54:03.639Z,4.80
2022-09-30T04:56:30.440Z,4.80
2022-09-30T04:58:57.439Z,4.90
2022-09-30T05:01:24.378Z,4.80
2022-09-30T05:03:51.234Z,4.80
2022-09-30T05:06:18.104Z,4.80
2022-09-30T05:08:46.360Z,4.80
2022-09-30T05:11:15.332Z,4.80
2022-09-30T05:13:42.088Z,4.80
2022-09-30T05:16:09.530Z,4.70
2022-09-30T05:18:36.380Z,4.70
2022-09-30T05:21:03.815Z,4.70
2022-09-30T05:23:31.427Z,4.70
2022-09-30T05:25:58.704Z,4.70
2022-09-30T05:28:25.999Z,4.80
2022-09-30T05:31:00.089Z,4.80
2022-09-30T05:33:29.418Z,4.80
2022-09-30T05:35:59.163Z,4.90
2022-09-30T05:38:25.888Z,4.90
2022-09-30T05:40:52.843Z,4.90
2022-09-30T05:43:19.677Z,5.00
2022-09-30T05:45:56.045Z,5.00
2022-09-30T05:48:23.882Z,5.00
2022-09-30T05:50:54.131Z,5.10
2022-09-30T05:53:20.905Z,5.20
2022-09-30T05:55:48.209Z,5.20
2022-09-30T05:58:15.560Z,5.20
2022-09-30T06:00:43.325Z,5.30
2022-09-30T06:03:10.746Z,5.30
2022-09-30T06:05:37.974Z,5.40
2022-09-30T06:08:04.754Z,5.40
2022-09-30T06:10:32.052Z,5.50
2022-09-30T06:12:59.206Z,5.60
2022-09-30T06:15:26.969Z,5.60
2022-09-30T06:17:54.224Z,5.80
2022-09-30T06:20:21.412Z,5.90
2022-09-30T06:22:48.253Z,6.10
2022-09-30T06:25:15.025Z,6.30
2022-09-30T06:27:44.674Z,6.50
2022-09-30T06:30:11.686Z,6.60
2022-09-30T06:32:38.412Z,6.70
2022-09-30T06:35:05.334Z,6.90
2022-09-30T06:37:32.139Z,7.20
2022-09-30T06:39:58.878Z,7.40
2022-09-30T06:42:25.596Z,7.60
2022-09-30T06:44:53.624Z,7.80
2022-09-30T06:47:25.046Z,8.10
2022-09-30T06:49:53.177Z,8.50
2022-09-30T06:52:20.196Z,8.70
2022-09-30T06:54:47.087Z,8.80
2022-09-30T06:57:13.932Z,9.10
2022-09-30T06:59:40.771Z,9.20
2022-09-30T07:02:09.078Z,9.30
2022-09-30T07:04:35.932Z,9.60
2022-09-30T07:07:03.073Z,9.70
2022-09-30T07:09:29.912Z,9.90
2022-09-30T07:11:56.711Z,10.00
2022-09-30T07:14:24.111Z,10.10
2022-09-30T07:16:53.458Z,10.20
2022-09-30T07:19:23.278Z,10.30
2022-09-30T07:21:50.340Z,10.40
2022-09-30T07:24:17.735Z,10.50
2022-09-30T07:26:47.456Z,10.50
2022-09-30T07:29:14.277Z,10.70
2022-09-30T07:31:41.308Z,10.70
2022-09-30T07:34:08.826Z,10.70
2022-09-30T07:36:37.874Z,10.60
2022-09-30T07:39:06.565Z,10.60
2022-09-30T07:41:36.545Z,10.60
2022-09-30T07:44:06.440Z,10.60
2022-09-30T07:46:34.634Z,10.60
2022-09-30T07:49:04.102Z,10.60
2022-09-30T07:51:40.936Z,10.60
2022-09-30T07:54:09.360Z,10.70
2022-09-30T07:56:58.137Z,10.70
2022-09-30T07:59:26.028Z,10.80
2022-09-30T08:01:52.907Z,10.90
2022-09-30T08:04:20.728Z,10.90
2022-09-30T08:06:48.870Z,10.90
2022-09-30T08:09:17.007Z,11.00
2022-09-30T08:11:43.791Z,11.10
2022-09-30T08:14:18.042Z,11.00
2022-09-30T08:16:44.962Z,11.00
2022-09-30T08:19:16.641Z,11.10
2022-09-30T08:21:43.796Z,11.10
2022-09-30T08:24:10.793Z,11.10
2022-09-30T08:26:38.189Z,11.10
2022-09-30T08:29:04.965Z,11.10
2022-09-30T08:31:33.334Z,11.20
2022-09-30T08:34:00.516Z,11.20
2022-09-30T08:36:27.619Z,11.30
2022-09-30T08:38:54.803Z,11.40
2022-09-30T08:41:40.360Z,11.40
2022-09-30T08:44:12.911Z,11.40
2022-09-30T08:46:39.671Z,11.40
2022-09-30T08:49:24.935Z,11.40
2022-09-30T08:51:52.647Z,11.40
2022-09-30T08:54:21.398Z,11.40
2022-09-30T08:56:48.411Z,11.50
2022-09-30T08:59:33.696Z,11.50
2022-09-30T09:02:17.555Z,11.50
2022-09-30T09:04:45.313Z,11.60
2022-09-30T09:07:12.043Z,11.70
2022-09-30T09:09:43.531Z,11.50
2022-09-30T09:12:16.408Z,11.60
2022-09-30T09:14:53.150Z,11.60
2022-09-30T09:17:26.239Z,11.60
2022-09-30T09:19:56.008Z,11.60
2022-09-30T09:22:25.053Z,11.60
2022-09-30T09:24:53.601Z,11.70
2022-09-30T09:27:46.587Z,11.80
2022-09-30T09:30:21.026Z,11.80
2022-09-30T09:32:51.538Z,11.60
2022-09-30T09:35:29.268Z,11.80
2022-09-30T09:38:18.935Z,11.80
2022-09-30T09:40:57.547Z,11.90
2022-09-30T09:43:33.328Z,12.00
2022-09-30T09:46:09.331Z,12.00
2022-09-30T09:48:37.323Z,12.00
2022-09-30T09:51:04.087Z,12.10
2022-09-30T09:53:33.908Z,12.10
2022-09-30T09:56:03.109Z,12.10
2022-09-30T09:58:29.921Z,12.20
2022-09-30T10:01:26.983Z,12.20
2022-09-30T10:04:09.608Z,12.20
2022-09-30T10:06:55.300Z,12.30
2022-09-30T10:09:23.831Z,12.20
2022-09-30T10:11:50.712Z,12.40
2022-09-30T10:14:19.235Z,12.50
2022-09-30T10:16:46.186Z,12.50
2022-09-30T10:19:25.184Z,12.40
2022-09-30T10:22:12.446Z,12.50
2022-09-30T10:24:39.424Z,12.50
2022-09-30T10:27:26.082Z,12.40
2022-09-30T10:29:52.865Z,12.30
2022-09-30T10:32:20.735Z,12.20
2022-09-30T10:34:55.091Z,12.30
2022-09-30T10:37:23.225Z,12.30
2022-09-30T10:39:57.447Z,12.40
2022-09-30T10:42:27.008Z,12.50
2022-09-30T10:44:54.201Z,12.50
2022-09-30T10:47:22.557Z,12.40
2022-09-30T10:49:51.434Z,12.50
2022-09-30T10:52:23.634Z,12.70
2022-09-30T10:54:51.887Z,12.70
2022-09-30T10:57:21.227Z,12.80
2022-09-30T10:59:48.840Z,12.90
2022-09-30T11:02:34.463Z,12.90
2022-09-30T11:05:13.505Z,12.70
2022-09-30T11:07:45.015Z,12.70
2022-09-30T11:10:30.595Z,12.80
2022-09-30T11:13:09.309Z,12.70
2022-09-30T11:16:05.706Z,12.80
2022-09-30T11:18:43.447Z,12.90
2022-09-30T11:21:13.044Z,12.80
2022-09-30T11:23:51.099Z,12.70
2022-09-30T11:26:25.442Z,12.70
2022-09-30T11:28:58.405Z,12.70
2022-09-30T11:31:36.570Z,12.70
2022-09-30T11:34:15.719Z,12.80
2022-09-30T11:36:53.988Z,12.90
2022-09-30T11:39:56.141Z,12.90
2022-09-30T11:42:28.224Z,13.00
2022-09-30T11:44:59.499Z,13.20
2022-09-30T11:47:49.459Z,13.20
2022-09-30T11:50:31.192Z,13.20
2022-09-30T11:53:08.096Z,13.20
2022-09-30T11:55:34.867Z,13.00
2022-09-30T11:58:40.542Z,12.80
2022-09-30T12:01:21.736Z,12.90
2022-09-30T12:04:18.511Z,12.90
2022-09-30T12:06:51.473Z,12.90
2022-09-30T12:09:21.461Z,12.90
2022-09-30T12:11:55.668Z,13.00
2022-09-30T12:14:25.238Z,13.10
2022-09-30T12:16:52.475Z,13.20
2022-09-30T12:19:29.336Z,13.20
2022-09-30T12:22:03.979Z,13.30
2022-09-30T12:24:40.730Z,13.30
2022-09-30T12:27:20.055Z,13.40
2022-09-30T12:30:10.099Z,13.20
2022-09-30T12:32:56.231Z,13.30
2022-09-30T12:35:28.098Z,13.30
2022-09-30T12:38:00.734Z,13.50
2022-09-30T12:41:03.099Z,13.50
2022-09-30T12:43:30.337Z,13.50
2022-09-30T12:46:03.061Z,13.70
2022-09-30T12:48:35.476Z,13.80
2022-09-30T12:51:02.417Z,14.00
2022-09-30T12:53:30.865Z,14.20
2022-09-30T12:56:04.970Z,14.30
2022-09-30T12:58:34.158Z,14.40
2022-09-30T13:01:07.104Z,14.50
2022-09-30T13:03:53.343Z,14.60
2022-09-30T13:06:21.279Z,14.70
2022-09-30T13:09:05.828Z,14.80
2022-09-30T13:11:34.266Z,15.00
2022-09-30T13:14:13.539Z,15.00
2022-09-30T13:16:58.814Z,15.00
2022-09-30T13:19:40.298Z,15.10
2022-09-30T13:22:19.385Z,15.00
2022-09-30T13:24:58.293Z,15.00
2022-09-30T13:27:40.245Z,15.10
2022-09-30T13:30:13.055Z,15.10
2022-09-30T13:32:40.360Z,15.20
2022-09-30T13:35:25.743Z,15.30
2022-09-30T13:38:11.264Z,15.30
2022-09-30T13:41:00.734Z,15.30
2022-09-30T13:43:28.147Z,15.30
2022-09-30T13:45:56.146Z,15.40
2022-09-30T13:48:30.076Z,15.40
2022-09-30T13:50:58.349Z,15.40
2022-09-30T13:53:33.048Z,15.40
2022-09-30T13:56:01.216Z,15.40
2022-09-30T13:58:28.007Z,15.50
2022-09-30T14:01:14.149Z,15.40
2022-09-30T14:03:44.740Z,15.30
2022-09-30T14:06:23.099Z,15.40
2022-09-30T14:08:50.425Z,15.60
2022-09-30T14:11:23.258Z,15.70
2022-09-30T14:13:50.253Z,16.00
2022-09-30T14:16:35.716Z,16.10
2022-09-30T14:19:22.305Z,16.20
2022-09-30T14:21:50.425Z,16.40
2022-09-30T14:24:24.064Z,16.60
2022-09-30T14:26:59.535Z,16.60
2022-09-30T14:29:31.868Z,16.70
2022-09-30T14:31:59.977Z,17.00
2022-09-30T14:34:27.607Z,16.90
2022-09-30T14:36:54.661Z,16.80
2022-09-30T14:39:24.256Z,16.70
2022-09-30T14:41:57.142Z,16.80
2022-09-30T14:44:25.639Z,16.60
2022-09-30T14:46:57.304Z,16.30
2022-09-30T14:49:34.165Z,16.00
2022-09-30T14:52:03.305Z,15.60
2022-09-30T14:54:31.306Z,15.10
2022-09-30T14:56:59.194Z,14.80
2022-09-30T14:59:31.728Z,14.50
2022-09-30T15:02:10.818Z,14.30
2022-09-30T15:04:42.630Z,14.10
2022-09-30T15:07:10.330Z,14.00
2022-09-30T15:09:42.288Z,13.90
2022-09-30T15:12:12.076Z,13.80
2022-09-30T15:14:52.425Z,13.70
2022-09-30T15:17:27.303Z,13.60
2022-09-30T15:19:55.767Z,13.60
2022-09-30T15:22:27.312Z,13.50
2022-09-30T15:24:54.867Z,13.40
2022-09-30T15:27:23.486Z,13.40
2022-09-30T15:29:56.866Z,13.30
2022-09-30T15:32:24.847Z,13.20
2022-09-30T15:34:51.679Z,13.20
2022-09-30T15:37:26.614Z,13.10
2022-09-30T15:40:11.861Z,13.10
2022-09-30T15:42:44.570Z,13.00
2022-09-30T15:45:20.754Z,12.90
2022-09-30T15:47:55.279Z,12.80
2022-09-30T15:50:40.680Z,12.70
2022-09-30T15:53:26.333Z,12.60
2022-09-30T15:55:55.617Z,12.50
2022-09-30T15:58:42.352Z,12.40
2022-09-30T16:01:15.037Z,12.40
2022-09-30T16:03:54.698Z,12.40
2022-09-30T16:06:25.404Z,12.30
2022-09-30T16:08:54.063Z,12.20
2022-09-30T16:11:25.449Z,12.20
2022-09-30T16:13:52.346Z,12.10
2022-09-30T16:16:23.990Z,12.00
2022-09-30T16:18:51.987Z,12.00
2022-09-30T16:21:43.546Z,12.00
2022-09-30T16:24:22.234Z,11.90
2022-09-30T16:27:11.828Z,11.90
2022-09-30T16:29:38.776Z,11.80
2022-09-30T16:32:06.069Z,11.80
2022-09-30T16:34:36.798Z,11.70
2022-09-30T16:37:05.695Z,11.70
2022-09-30T16:39:32.399Z,11.60
2022-09-30T16:41:59.284Z,11.70
2022-09-30T16:44:26.022Z,11.60
2022-09-30T16:46:52.787Z,11.50
2022-09-30T16:49:19.788Z,11.50
2022-09-30T16:51:46.532Z,11.40
2022-09-30T16:54:13.316Z,11.40
2022-09-30T16:56:40.043Z,11.40
2022-09-30T16:59:16.359Z,11.30
2022-09-30T17:01:43.291Z,11.30
2022-09-30T17:04:12.980Z,11.30
2022-09-30T17:06:42.129Z,11.30
2022-09-30T17:09:08.885Z,11.20
2022-09-30T17:11:36.250Z,11.20
2022-09-30T17:14:03.976Z,11.10
2022-09-30T17:16:31.234Z,11.10
2022-09-30T17:18:58.303Z,11.10
2022-09-30T17:21:26.008Z,11.00
2022-09-30T17:23:53.831Z,11.00
2022-09-30T17:26:20.590Z,11.00
2022-09-30T17:28:47.553Z,11.00
2022-09-30T17:31:15.045Z,11.00
2022-09-30T17:33:41.848Z,10.90
2022-09-30T17:36:10.370Z,10.90
2022-09-30T17:38:37.703Z,10.90
2022-09-30T17:41:23.435Z,10.90
2022-09-30T17:43:50.353Z,10.80
2022-09-30T17:46:19.188Z,10.80
2022-09-30T17:48:46.686Z,10.80
2022-09-30T17:51:14.800Z,10.80
2022-09-30T17:53:41.889Z,10.80
2022-09-30T17:56:16.899Z,10.80
2022-09-30T17:58:47.377Z,10.80
2022-09-30T18:01:14.702Z,10.80
2022-09-30T18:03:41.523Z,10.80
2022-09-30T18:06:08.335Z,10.80
2022-09-30T18:08:35.931Z,10.80
2022-09-30T18:11:02.905Z,10.70
2022-09-30T18:13:29.701Z,10.70
2022-09-30T18:16:01.798Z,10.70
2022-09-30T18:18:29.491Z,10.70
2022-09-30T18:20:56.211Z,10.70
2022-09-30T18:23:22.992Z,10.60
2022-09-30T18:25:54.373Z,10.60
2022-09-30T18:28:21.201Z,10.50
2022-09-30T18:30:48.028Z,10.50
2022-09-30T18:33:17.378Z,10.40
2022-09-30T18:35:44.225Z,10.30
2022-09-30T18:38:12.796Z,10.30
2022-09-30T18:40:41.197Z,10.30
2022-09-30T18:43:11.144Z,10.20
2022-09-30T18:45:41.001Z,10.20
2022-09-30T18:48:08.841Z,10.10
2022-09-30T18:50:35.808Z,10.10
2022-09-30T18:53:09.083Z,10.00
2022-09-30T18:55:38.165Z,10.00
2022-09-30T18:58:05.005Z,10.00
2022-09-30T19:00:31.923Z,9.90
2022-09-30T19:02:58.679Z,9.90
2022-09-30T19:05:25.667Z,9.80
2022-09-30T19:07:53.558Z,9.80
2022-09-30T19:10:20.515Z,9.80
2022-09-30T19:12:47.576Z,9.70
2022-09-30T19:15:16.098Z,9.70
2022-09-30T19:17:43.677Z,9.70
2022-09-30T19:20:11.167Z,9.70
2022-09-30T19:22:38.331Z,9.60
2022-09-30T19:25:05.914Z,9.60
2022-09-30T19:27:33.225Z,9.60
2022-09-30T19:29:59.978Z,9.60
2022-09-30T19:32:29.364Z,9.60
2022-09-30T19:35:05.167Z,9.50
2022-09-30T19:37:33.008Z,9.50
2022-09-30T19:40:07.719Z,9.50
2022-09-30T19:42:39.381Z,9.40
2022-09-30T19:45:06.926Z,9.40
2022-09-30T19:47:34.624Z,9.30
2022-09-30T19:50:01.455Z,9.30
2022-09-30T19:52:28.337Z,9.30
2022-09-30T19:54:58.060Z,9.30
2022-09-30T19:57:28.768Z,9.30
2022-09-30T19:59:55.497Z,9.20
2022-09-30T20:02:23.165Z,9.20
2022-09-30T20:04:52.885Z,9.20
2022-09-30T20:07:19.791Z,9.20
2022-09-30T20:09:49.412Z,9.20
2022-09-30T20:12:16.286Z,9.20
2022-09-30T20:15:01.470Z,9.20
2022-09-30T20:17:28.297Z,9.10
2022-09-30T20:20:13.541Z,9.20
2022-09-30T20:22:40.349Z,9.10
2022-09-30T20:25:07.275Z,9.10
2022-09-30T20:27:34.081Z,9.10
2022-09-30T20:30:00.890Z,9.10
2022-09-30T20:32:30.680Z,9.10
2022-09-30T20:34:58.549Z,9.00
2022-09-30T20:37:25.277Z,9.00
2022-09-30T20:39:51.965Z,9.00
2022-09-30T20:42:18.736Z,9.00
2022-09-30T20:44:45.460Z,9.00
2022-09-30T20:47:12.234Z,9.00
2022-09-30T20:49:38.940Z,9.00
2022-09-30T20:52:06.117Z,9.10
2022-09-30T20:54:35.457Z,9.10
2022-09-30T20:57:07.254Z,9.10
2022-09-30T20:59:34.526Z,9.10
2022-09-30T21:02:01.377Z,9.10
2022-09-30T21:04:28.208Z,9.20
2022-09-30T21:06:55.230Z,9.20
2022-09-30T21:09:21.956Z,9.20
2022-09-30T21:11:48.733Z,9.20
2022-09-30T21:14:19.358Z,9.20
2022-09-30T21:16:46.161Z,9.20
2022-09-30T21:19:12.950Z,9.20
2022-09-30T21:21:39.728Z,9.20
2022-09-30T21:24:06.713Z,9.20
2022-09-30T21:26:33.568Z,9.20
2022-09-30T21:29:00.329Z,9.20
2022-09-30T21:31:27.730Z,9.10
2022-09-30T21:33:56.514Z,9.10
2022-09-30T21:36:23.286Z,9.10
2022-09-30T21:38:50.126Z,9.10
2022-09-30T21:41:17.324Z,9.10
2022-09-30T21:43:44.340Z,9.10
2022-09-30T21:46:12.527Z,9.10
2022-09-30T21:48:39.567Z,9.10
2022-09-30T21:51:07.054Z,9.10
2022-09-30T21:53:34.115Z,9.10
2022-09-30T21:56:01.845Z,9.00
2022-09-30T21:58:31.506Z,9.00
2022-09-30T22:01:00.045Z,9.00
2022-09-30T22:03:28.497Z,9.00
2022-09-30T22:05:56.157Z,9.00
2022-09-30T22:08:22.923Z,8.90
2022-09-30T22:10:50.836Z,8.90
2022-09-30T22:13:18.219Z,8.90
2022-09-30T22:15:45.925Z,8.90
2022-09-30T22:18:16.315Z,8.90
2022-09-30T22:20:43.773Z,8.90
2022-09-30T22:23:10.806Z,8.80
2022-09-30T22:25:38.190Z,8.80
2022-09-30T22:28:05.034Z,8.80
2022-09-30T22:30:32.579Z,8.70
2022-09-30T22:33:17.737Z,8.80
2022-09-30T22:36:03.132Z,8.80
2022-09-30T22:38:30.060Z,8.80
2022-09-30T22:40:59.305Z,8.70
2022-09-30T22:43:26.614Z,8.70
2022-09-30T22:46:06.477Z,8.60
2022-09-30T22:48:33.654Z,8.60
2022-09-30T22:51:00.691Z,8.60
2022-09-30T22:53:28.161Z,8.50
2022-09-30T22:55:55.181Z,8.50
2022-09-30T22:58:24.274Z,8.50
2022-09-30T23:00:52.349Z,8.50
2022-09-30T23:03:19.116Z,8.40
2022-09-30T23:05:46.234Z,8.40
2022-09-30T23:08:13.022Z,8.30
2022-09-30T23:10:45.298Z,8.30
2022-09-30T23:13:13.349Z,8.30
2022-09-30T23:15:40.099Z,8.30
2022-09-30T23:18:06.911Z,8.30
2022-09-30T23:20:35.617Z,8.30
2022-09-30T23:23:02.410Z,8.30
2022-09-30T23:25:29.487Z,8.30
2022-09-30T23:27:56.489Z,8.30
2022-09-30T23:30:23.399Z,8.30
2022-09-30T23:32:50.110Z,8.20
2022-09-30T23:35:16.860Z,8.20
2022-09-30T23:37:43.612Z,8.20
2022-09-30T23:40:10.445Z,8.20
2022-09-30T23:42:37.202Z,8.20
2022-09-30T23:45:04.047Z,8.20
2022-09-30T23:47:30.754Z,8.20
2022-09-30T23:49:58.287Z,8.20
2022-09-30T23:52:24.978Z,8.20
2022-09-30T23:54:51.761Z,8.20
2022-09-30T23:57:18.531Z,8.10
2022-09-30T23:59:45.251Z,8.10
